createdAt,value
2018-09-09T00:00:20.403Z,1014.10
2018-09-09T00:01:20.427Z,1014.11
2018-09-09T00:02:20.449Z,1014.11
2018-09-09T00:03:20.470Z,1014.10
2018-09-09T00:04:20.494Z,1014.07
2018-09-09T00:05:20.510Z,1014.06
2018-09-09T00:06:20.532Z,1014.04
2018-09-09T00:07:20.553Z,1014.07
2018-09-09T00:08:20.575Z,1014.08
2018-09-09T00:09:20.598Z,1014.09
2018-09-09T00:10:20.617Z,1014.10
2018-09-09T00:11:20.638Z,1014.13
2018-09-09T00:12:20.660Z,1014.16
2018-09-09T00:13:20.683Z,1014.14
2018-09-09T00:14:20.706Z,1014.17
2018-09-09T00:15:20.725Z,1014.22
2018-09-09T00:16:20.749Z,1014.24
2018-09-09T00:17:20.770Z,1014.22
2018-09-09T00:18:20.789Z,1014.26
2018-09-09T00:19:20.814Z,1014.24
2018-09-09T00:20:20.833Z,1014.21
2018-09-09T00:21:20.854Z,1014.18
2018-09-09T00:22:20.882Z,1014.18
2018-09-09T00:23:20.896Z,1014.17
2018-09-09T00:24:20.916Z,1014.19
2018-09-09T00:25:20.938Z,1014.17
2018-09-09T00:26:20.959Z,1014.18
2018-09-09T00:27:20.980Z,1014.17
2018-09-09T00:28:21.002Z,1014.13
2018-09-09T00:29:21.023Z,1014.16
2018-09-09T00:30:21.046Z,1014.16
2018-09-09T00:31:21.065Z,1014.21
2018-09-09T00:32:21.090Z,1014.19
2018-09-09T00:33:21.132Z,1014.19
2018-09-09T00:34:21.129Z,1014.14
2018-09-09T00:35:21.151Z,1014.15
2018-09-09T00:36:21.172Z,1014.13
2018-09-09T00:37:21.193Z,1014.11
2018-09-09T00:38:21.217Z,1014.12
2018-09-09T00:39:21.238Z,1014.12
2018-09-09T00:40:21.256Z,1014.12
2018-09-09T00:41:21.277Z,1014.09
2018-09-09T00:42:21.299Z,1014.10
2018-09-09T00:43:21.322Z,1014.07
2018-09-09T00:44:21.376Z,1014.09
2018-09-09T00:45:21.366Z,1014.15
2018-09-09T00:46:21.386Z,1014.15
2018-09-09T00:47:21.408Z,1014.16
2018-09-09T00:48:21.428Z,1014.15
2018-09-09T00:49:21.447Z,1014.13
2018-09-09T00:50:21.471Z,1014.15
2018-09-09T00:51:21.489Z,1014.14
2018-09-09T00:52:21.517Z,1014.10
2018-09-09T00:53:21.539Z,1014.10
2018-09-09T00:54:21.556Z,1014.12
2018-09-09T00:55:21.574Z,1014.11
2018-09-09T00:56:21.599Z,1014.13
2018-09-09T00:57:21.616Z,1014.11
2018-09-09T00:58:21.638Z,1014.15
2018-09-09T00:59:21.662Z,1014.16
2018-09-09T01:00:22.016Z,1014.17
2018-09-09T01:01:21.700Z,1014.15
2018-09-09T01:02:21.725Z,1014.17
2018-09-09T01:03:21.743Z,1014.18
2018-09-09T01:04:21.765Z,1014.16
2018-09-09T01:05:21.787Z,1014.15
2018-09-09T01:06:21.806Z,1014.16
2018-09-09T01:07:21.828Z,1014.12
2018-09-09T01:08:21.851Z,1014.11
2018-09-09T01:09:21.872Z,1014.13
2018-09-09T01:10:21.892Z,1014.15
2018-09-09T01:11:21.911Z,1014.13
2018-09-09T01:12:21.937Z,1014.13
2018-09-09T01:13:21.955Z,1014.11
2018-09-09T01:14:21.977Z,1014.08
2018-09-09T01:15:21.995Z,1014.16
2018-09-09T01:16:22.020Z,1014.12
2018-09-09T01:17:22.040Z,1014.14
2018-09-09T01:18:22.062Z,1014.10
2018-09-09T01:19:22.083Z,1014.08
2018-09-09T01:20:22.104Z,1014.03
2018-09-09T01:21:22.124Z,1014.06
2018-09-09T01:22:22.143Z,1014.04
2018-09-09T01:23:22.166Z,1014.05
2018-09-09T01:24:22.187Z,1014.06
2018-09-09T01:25:22.206Z,1014.07
2018-09-09T01:26:22.228Z,1014.04
2018-09-09T01:27:22.249Z,1014.09
2018-09-09T01:28:22.272Z,1014.10
2018-09-09T01:29:22.289Z,1014.07
2018-09-09T01:30:22.313Z,1014.05
2018-09-09T01:31:22.337Z,1014.05
2018-09-09T01:32:22.375Z,1014.10
2018-09-09T01:33:22.373Z,1014.06
2018-09-09T01:34:22.398Z,1014.11
2018-09-09T01:35:22.418Z,1014.07
2018-09-09T01:36:22.439Z,1014.03
2018-09-09T01:37:22.458Z,1013.98
2018-09-09T01:38:22.481Z,1014.00
2018-09-09T01:39:22.501Z,1013.96
2018-09-09T01:40:22.521Z,1013.99
2018-09-09T01:41:22.542Z,1014.01
2018-09-09T01:42:22.565Z,1014.03
2018-09-09T01:43:22.587Z,1014.09
2018-09-09T01:44:22.605Z,1014.06
2018-09-09T01:45:22.626Z,1014.05
2018-09-09T01:46:22.655Z,1014.10
2018-09-09T01:47:22.672Z,1014.11
2018-09-09T01:48:22.691Z,1014.06
2018-09-09T01:49:22.715Z,1014.06
2018-09-09T01:50:22.732Z,1014.08
2018-09-09T01:51:22.755Z,1014.10
2018-09-09T01:52:22.778Z,1014.12
2018-09-09T01:53:22.795Z,1014.12
2018-09-09T01:54:22.817Z,1014.14
2018-09-09T01:55:22.838Z,1014.17
2018-09-09T01:56:22.861Z,1014.12
2018-09-09T01:57:22.879Z,1014.11
2018-09-09T01:58:22.901Z,1014.07
2018-09-09T01:59:22.919Z,1014.04
2018-09-09T02:00:22.943Z,1014.05
2018-09-09T02:01:23.114Z,1014.06
2018-09-09T02:02:22.988Z,1014.06
2018-09-09T02:03:23.005Z,1014.03
2018-09-09T02:04:23.026Z,1014.07
2018-09-09T02:05:23.047Z,1014.04
2018-09-09T02:06:23.065Z,1014.08
2018-09-09T02:07:23.090Z,1014.10
2018-09-09T02:08:23.110Z,1014.04
2018-09-09T02:09:23.131Z,1014.06
2018-09-09T02:10:23.149Z,1014.07
2018-09-09T02:11:23.172Z,1014.07
2018-09-09T02:12:23.192Z,1014.08
2018-09-09T02:13:23.213Z,1014.10
2018-09-09T02:14:23.238Z,1014.11
2018-09-09T02:15:23.256Z,1014.16
2018-09-09T02:16:23.279Z,1014.15
2018-09-09T02:17:23.295Z,1014.15
2018-09-09T02:18:23.344Z,1014.13
2018-09-09T02:19:23.337Z,1014.10
2018-09-09T02:20:23.361Z,1014.07
2018-09-09T02:21:23.379Z,1014.07
2018-09-09T02:22:23.401Z,1014.00
2018-09-09T02:23:23.423Z,1014.02
2018-09-09T02:24:23.442Z,1014.01
2018-09-09T02:25:23.462Z,1014.03
2018-09-09T02:26:23.485Z,1014.02
2018-09-09T02:27:23.511Z,1014.04
2018-09-09T02:28:23.529Z,1014.04
2018-09-09T02:29:23.545Z,1014.05
2018-09-09T02:30:23.571Z,1014.07
2018-09-09T02:31:23.589Z,1014.09
2018-09-09T02:32:23.608Z,1014.09
2018-09-09T02:33:23.631Z,1014.08
2018-09-09T02:34:23.654Z,1014.07
2018-09-09T02:35:23.674Z,1014.08
2018-09-09T02:36:23.694Z,1014.10
2018-09-09T02:37:23.715Z,1014.08
2018-09-09T02:38:23.733Z,1014.09
2018-09-09T02:39:23.756Z,1014.10
2018-09-09T02:40:23.777Z,1014.14
2018-09-09T02:41:23.796Z,1014.10
2018-09-09T02:42:23.817Z,1014.08
2018-09-09T02:43:23.841Z,1014.07
2018-09-09T02:44:23.862Z,1014.08
2018-09-09T02:45:23.879Z,1014.09
2018-09-09T02:46:23.909Z,1014.08
2018-09-09T02:47:23.925Z,1014.07
2018-09-09T02:48:23.945Z,1014.07
2018-09-09T02:49:23.965Z,1014.07
2018-09-09T02:50:23.986Z,1014.06
2018-09-09T02:51:24.005Z,1014.05
2018-09-09T02:52:24.032Z,1014.05
2018-09-09T02:53:24.050Z,1014.03
2018-09-09T02:54:24.067Z,1014.02
2018-09-09T02:55:24.090Z,1014.01
2018-09-09T02:56:24.112Z,1014.01
2018-09-09T02:57:24.133Z,1014.02
2018-09-09T02:58:24.151Z,1014.04
2018-09-09T02:59:24.173Z,1014.02
2018-09-09T03:00:24.195Z,1014.00
2018-09-09T03:01:24.212Z,1014.04
2018-09-09T03:02:24.237Z,1014.05
2018-09-09T03:03:24.256Z,1014.03
2018-09-09T03:04:24.279Z,1014.04
2018-09-09T03:05:24.295Z,1014.06
2018-09-09T03:06:24.317Z,1014.07
2018-09-09T03:07:24.337Z,1014.08
2018-09-09T03:08:24.358Z,1014.11
2018-09-09T03:09:24.381Z,1014.05
2018-09-09T03:10:24.399Z,1014.03
2018-09-09T03:11:24.435Z,1014.11
2018-09-09T03:12:24.443Z,1014.11
2018-09-09T03:13:24.464Z,1014.10
2018-09-09T03:14:24.482Z,1014.07
2018-09-09T03:15:24.503Z,1014.03
2018-09-09T03:16:24.533Z,1014.03
2018-09-09T03:17:24.544Z,1014.06
2018-09-09T03:18:24.565Z,1014.03
2018-09-09T03:19:24.598Z,1014.09
2018-09-09T03:20:24.608Z,1014.16
2018-09-09T03:21:24.631Z,1014.16
2018-09-09T03:22:24.651Z,1014.18
2018-09-09T03:23:24.669Z,1014.12
2018-09-09T03:24:24.691Z,1014.17
2018-09-09T03:25:24.711Z,1014.16
2018-09-09T03:26:24.734Z,1014.12
2018-09-09T03:27:24.755Z,1014.15
2018-09-09T03:28:24.829Z,1014.15
2018-09-09T03:29:24.801Z,1014.17
2018-09-09T03:30:24.819Z,1014.20
2018-09-09T03:31:24.840Z,1014.14
2018-09-09T03:32:24.862Z,1014.12
2018-09-09T03:33:24.878Z,1014.03
2018-09-09T03:34:24.902Z,1013.92
2018-09-09T03:35:24.926Z,1013.89
2018-09-09T03:36:24.945Z,1013.90
2018-09-09T03:37:24.964Z,1013.83
2018-09-09T03:38:24.986Z,1013.79
2018-09-09T03:39:25.013Z,1013.79
2018-09-09T03:40:25.026Z,1013.81
2018-09-09T03:41:25.049Z,1013.80
2018-09-09T03:42:25.078Z,1013.80
2018-09-09T03:43:25.092Z,1013.81
2018-09-09T03:44:25.110Z,1013.79
2018-09-09T03:45:25.130Z,1013.83
2018-09-09T03:46:25.152Z,1013.85
2018-09-09T03:47:25.179Z,1013.86
2018-09-09T03:48:25.195Z,1013.84
2018-09-09T03:49:25.215Z,1013.83
2018-09-09T03:50:25.237Z,1013.82
2018-09-09T03:51:25.256Z,1013.83
2018-09-09T03:52:25.278Z,1013.86
2018-09-09T03:53:25.298Z,1013.87
2018-09-09T03:54:25.322Z,1013.93
2018-09-09T03:55:25.343Z,1013.94
2018-09-09T03:56:25.361Z,1013.93
2018-09-09T03:57:25.409Z,1013.94
2018-09-09T03:58:25.402Z,1013.95
2018-09-09T03:59:25.429Z,1013.98
2018-09-09T04:00:25.445Z,1013.95
2018-09-09T04:01:25.468Z,1013.97
2018-09-09T04:02:25.489Z,1013.99
2018-09-09T04:03:25.506Z,1014.02
2018-09-09T04:04:25.532Z,1014.02
2018-09-09T04:05:25.551Z,1014.02
2018-09-09T04:06:25.569Z,1014.04
2018-09-09T04:07:25.593Z,1014.04
2018-09-09T04:08:25.614Z,1014.08
2018-09-09T04:09:25.634Z,1014.07
2018-09-09T04:10:25.653Z,1014.06
2018-09-09T04:11:25.676Z,1014.04
2018-09-09T04:12:25.698Z,1014.10
2018-09-09T04:13:25.718Z,1014.14
2018-09-09T04:14:25.756Z,1014.10
2018-09-09T04:15:25.762Z,1014.13
2018-09-09T04:16:25.782Z,1014.09
2018-09-09T04:17:25.802Z,1014.09
2018-09-09T04:18:25.820Z,1014.10
2018-09-09T04:19:25.844Z,1014.08
2018-09-09T04:20:25.863Z,1014.13
2018-09-09T04:21:25.889Z,1014.13
2018-09-09T04:22:25.904Z,1014.13
2018-09-09T04:23:25.928Z,1014.16
2018-09-09T04:24:25.949Z,1014.14
2018-09-09T04:25:25.966Z,1014.15
2018-09-09T04:26:25.990Z,1014.15
2018-09-09T04:27:26.008Z,1014.12
2018-09-09T04:28:26.034Z,1014.16
2018-09-09T04:29:26.053Z,1014.08
2018-09-09T04:30:26.072Z,1014.08
2018-09-09T04:31:26.093Z,1014.04
2018-09-09T04:32:26.113Z,1014.05
2018-09-09T04:33:26.134Z,1014.03
2018-09-09T04:34:26.157Z,1014.08
2018-09-09T04:35:26.180Z,1014.08
2018-09-09T04:36:26.200Z,1014.08
2018-09-09T04:37:26.218Z,1014.05
2018-09-09T04:38:26.242Z,1014.07
2018-09-09T04:39:26.263Z,1014.08
2018-09-09T04:40:26.281Z,1014.10
2018-09-09T04:41:26.302Z,1014.04
2018-09-09T04:42:26.323Z,1014.09
2018-09-09T04:43:26.345Z,1014.06
2018-09-09T04:44:26.365Z,1014.07
2018-09-09T04:45:26.386Z,1014.08
2018-09-09T04:46:26.489Z,1014.11
2018-09-09T04:47:26.428Z,1014.09
2018-09-09T04:48:26.452Z,1014.13
2018-09-09T04:49:26.474Z,1014.12
2018-09-09T04:50:26.490Z,1014.15
2018-09-09T04:51:26.512Z,1014.15
2018-09-09T04:52:26.537Z,1014.11
2018-09-09T04:53:26.556Z,1014.11
2018-09-09T04:54:26.575Z,1014.09
2018-09-09T04:55:26.598Z,1014.12
2018-09-09T04:56:26.620Z,1014.14
2018-09-09T04:57:26.637Z,1014.15
2018-09-09T04:58:26.659Z,1014.15
2018-09-09T04:59:26.683Z,1014.15
2018-09-09T05:00:26.701Z,1014.15
2018-09-09T05:01:26.768Z,1014.08
2018-09-09T05:02:26.743Z,1014.13
2018-09-09T05:03:26.764Z,1014.15
2018-09-09T05:04:26.791Z,1014.17
2018-09-09T05:05:26.806Z,1014.18
2018-09-09T05:06:26.830Z,1014.22
2018-09-09T05:07:26.851Z,1014.25
2018-09-09T05:08:26.869Z,1014.24
2018-09-09T05:09:26.888Z,1014.23
2018-09-09T05:10:26.911Z,1014.27
2018-09-09T05:11:26.931Z,1014.28
2018-09-09T05:12:26.956Z,1014.33
2018-09-09T05:13:26.978Z,1014.32
2018-09-09T05:14:26.995Z,1014.32
2018-09-09T05:15:27.015Z,1014.30
2018-09-09T05:16:27.037Z,1014.25
2018-09-09T05:17:27.059Z,1014.28
2018-09-09T05:18:27.080Z,1014.30
2018-09-09T05:19:27.105Z,1014.35
2018-09-09T05:20:27.122Z,1014.37
2018-09-09T05:21:27.140Z,1014.39
2018-09-09T05:22:27.161Z,1014.40
2018-09-09T05:23:27.183Z,1014.40
2018-09-09T05:24:27.207Z,1014.38
2018-09-09T05:25:27.224Z,1014.41
2018-09-09T05:26:27.267Z,1014.47
2018-09-09T05:27:27.267Z,1014.45
2018-09-09T05:28:27.287Z,1014.46
2018-09-09T05:29:27.309Z,1014.52
2018-09-09T05:30:27.332Z,1014.50
2018-09-09T05:31:27.352Z,1014.52
2018-09-09T05:32:27.374Z,1014.54
2018-09-09T05:33:27.395Z,1014.56
2018-09-09T05:34:27.415Z,1014.54
2018-09-09T05:35:27.434Z,1014.52
2018-09-09T05:36:27.458Z,1014.53
2018-09-09T05:37:27.483Z,1014.50
2018-09-09T05:38:27.500Z,1014.55
2018-09-09T05:39:27.518Z,1014.51
2018-09-09T05:40:27.540Z,1014.53
2018-09-09T05:41:27.563Z,1014.52
2018-09-09T05:42:27.651Z,1014.52
2018-09-09T05:43:27.605Z,1014.43
2018-09-09T05:44:27.624Z,1014.46
2018-09-09T05:45:27.647Z,1014.50
2018-09-09T05:46:27.669Z,1014.47
2018-09-09T05:47:27.687Z,1014.49
2018-09-09T05:48:27.712Z,1014.51
2018-09-09T05:49:27.732Z,1014.51
2018-09-09T05:50:27.750Z,1014.52
2018-09-09T05:51:27.773Z,1014.54
2018-09-09T05:52:27.798Z,1014.54
2018-09-09T05:53:27.816Z,1014.54
2018-09-09T05:54:27.839Z,1014.54
2018-09-09T05:55:27.858Z,1014.57
2018-09-09T05:56:27.879Z,1014.58
2018-09-09T05:57:27.940Z,1014.55
2018-09-09T05:58:27.920Z,1014.61
2018-09-09T05:59:27.941Z,1014.59
2018-09-09T06:00:27.965Z,1014.59
2018-09-09T06:01:27.983Z,1014.63
2018-09-09T06:02:28.008Z,1014.59
2018-09-09T06:03:28.027Z,1014.60
2018-09-09T06:04:28.049Z,1014.63
2018-09-09T06:05:28.069Z,1014.62
2018-09-09T06:06:28.096Z,1014.59
2018-09-09T06:07:28.123Z,1014.58
2018-09-09T06:08:28.133Z,1014.55
2018-09-09T06:09:28.154Z,1014.55
2018-09-09T06:10:28.178Z,1014.57
2018-09-09T06:11:28.199Z,1014.55
2018-09-09T06:12:28.220Z,1014.57
2018-09-09T06:13:28.240Z,1014.58
2018-09-09T06:14:28.263Z,1014.58
2018-09-09T06:15:28.282Z,1014.63
2018-09-09T06:16:28.307Z,1014.58
2018-09-09T06:17:28.324Z,1014.59
2018-09-09T06:18:28.348Z,1014.55
2018-09-09T06:19:28.398Z,1014.48
2018-09-09T06:20:28.390Z,1014.55
2018-09-09T06:21:28.413Z,1014.58
2018-09-09T06:22:28.432Z,1014.65
2018-09-09T06:23:28.454Z,1014.64
2018-09-09T06:24:28.477Z,1014.69
2018-09-09T06:25:28.499Z,1014.68
2018-09-09T06:26:28.520Z,1014.71
2018-09-09T06:27:28.566Z,1014.74
2018-09-09T06:28:28.564Z,1014.72
2018-09-09T06:29:28.581Z,1014.73
2018-09-09T06:30:28.605Z,1014.76
2018-09-09T06:31:28.677Z,1014.76
2018-09-09T06:32:28.650Z,1014.77
2018-09-09T06:33:28.672Z,1014.80
2018-09-09T06:34:28.691Z,1014.76
2018-09-09T06:35:28.712Z,1014.81
2018-09-09T06:36:28.735Z,1014.83
2018-09-09T06:37:28.754Z,1014.83
2018-09-09T06:38:28.777Z,1014.85
2018-09-09T06:39:28.798Z,1014.84
2018-09-09T06:40:28.820Z,1014.83
2018-09-09T06:41:28.842Z,1014.83
2018-09-09T06:42:28.865Z,1014.89
2018-09-09T06:43:28.888Z,1014.88
2018-09-09T06:44:28.909Z,1014.88
2018-09-09T06:45:28.934Z,1014.88
2018-09-09T06:46:28.983Z,1014.85
2018-09-09T06:47:28.974Z,1014.88
2018-09-09T06:48:28.994Z,1014.88
2018-09-09T06:49:29.021Z,1014.93
2018-09-09T06:50:29.037Z,1014.93
2018-09-09T06:51:29.059Z,1014.95
2018-09-09T06:52:29.084Z,1014.92
2018-09-09T06:53:29.105Z,1014.95
2018-09-09T06:54:29.124Z,1014.94
2018-09-09T06:55:29.270Z,1014.95
2018-09-09T06:56:29.174Z,1014.96
2018-09-09T06:57:29.195Z,1014.92
2018-09-09T06:58:29.211Z,1014.92
2018-09-09T06:59:29.237Z,1014.94
2018-09-09T07:00:29.259Z,1014.92
2018-09-09T07:01:29.278Z,1014.94
2018-09-09T07:02:29.371Z,1015.00
2018-09-09T07:03:29.321Z,1014.98
2018-09-09T07:04:29.346Z,1014.90
2018-09-09T07:05:29.366Z,1014.94
2018-09-09T07:06:29.389Z,1014.92
2018-09-09T07:07:29.414Z,1014.94
2018-09-09T07:08:29.433Z,1014.95
2018-09-09T07:09:29.455Z,1014.93
2018-09-09T07:10:29.479Z,1014.97
2018-09-09T07:11:29.642Z,1014.98
2018-09-09T07:12:29.521Z,1014.99
2018-09-09T07:13:29.543Z,1015.03
2018-09-09T07:14:29.567Z,1015.02
2018-09-09T07:15:29.592Z,1015.00
2018-09-09T07:16:29.613Z,1015.01
2018-09-09T07:17:29.637Z,1015.03
2018-09-09T07:18:29.654Z,1015.05
2018-09-09T07:19:29.678Z,1015.05
2018-09-09T07:20:29.703Z,1015.03
2018-09-09T07:21:29.724Z,1015.01
2018-09-09T07:22:29.747Z,1015.10
2018-09-09T07:23:29.768Z,1015.10
2018-09-09T07:24:29.791Z,1015.12
2018-09-09T07:25:29.816Z,1015.09
2018-09-09T07:26:29.836Z,1015.12
2018-09-09T07:27:29.860Z,1015.15
2018-09-09T07:28:29.911Z,1015.15
2018-09-09T07:29:29.904Z,1015.10
2018-09-09T07:30:29.929Z,1015.11
2018-09-09T07:31:29.950Z,1015.08
2018-09-09T07:32:29.973Z,1015.12
2018-09-09T07:33:29.996Z,1015.07
2018-09-09T07:34:30.019Z,1015.11
2018-09-09T07:35:30.044Z,1015.09
2018-09-09T07:36:30.067Z,1015.13
2018-09-09T07:37:30.089Z,1015.16
2018-09-09T07:38:30.111Z,1015.12
2018-09-09T07:39:30.137Z,1015.14
2018-09-09T07:40:30.160Z,1015.13
2018-09-09T07:41:30.181Z,1015.19
2018-09-09T07:42:30.209Z,1015.19
2018-09-09T07:43:30.228Z,1015.25
2018-09-09T07:44:30.253Z,1015.22
2018-09-09T07:45:30.273Z,1015.19
2018-09-09T07:46:30.376Z,1015.16
2018-09-09T07:47:30.321Z,1015.18
2018-09-09T07:48:30.343Z,1015.14
2018-09-09T07:49:30.364Z,1015.19
2018-09-09T07:50:30.447Z,1015.25
2018-09-09T07:51:30.412Z,1015.23
2018-09-09T07:52:30.439Z,1015.23
2018-09-09T07:53:30.459Z,1015.27
2018-09-09T07:54:30.484Z,1015.27
2018-09-09T07:55:30.505Z,1015.31
2018-09-09T07:56:30.529Z,1015.32
2018-09-09T07:57:30.553Z,1015.28
2018-09-09T07:58:30.580Z,1015.28
2018-09-09T07:59:30.598Z,1015.28
2018-09-09T08:00:30.663Z,1015.25
2018-09-09T08:01:30.644Z,1015.22
2018-09-09T08:02:30.669Z,1015.27
2018-09-09T08:03:30.697Z,1015.29
2018-09-09T08:04:30.719Z,1015.27
2018-09-09T08:05:30.740Z,1015.31
2018-09-09T08:06:30.760Z,1015.29
2018-09-09T08:07:30.785Z,1015.32
2018-09-09T08:08:30.810Z,1015.29
2018-09-09T08:09:30.832Z,1015.30
2018-09-09T08:10:30.852Z,1015.30
2018-09-09T08:11:30.876Z,1015.29
2018-09-09T08:12:30.903Z,1015.30
2018-09-09T08:13:30.924Z,1015.35
2018-09-09T08:14:30.944Z,1015.37
2018-09-09T08:15:30.972Z,1015.35
2018-09-09T08:16:30.994Z,1015.39
2018-09-09T08:17:31.014Z,1015.35
2018-09-09T08:18:31.061Z,1015.34
2018-09-09T08:19:31.061Z,1015.35
2018-09-09T08:20:31.086Z,1015.32
2018-09-09T08:21:31.109Z,1015.23
2018-09-09T08:22:31.132Z,1015.24
2018-09-09T08:23:31.178Z,1015.21
2018-09-09T08:24:31.179Z,1015.14
2018-09-09T08:25:31.199Z,1015.14
2018-09-09T08:26:31.225Z,1015.11
2018-09-09T08:27:31.245Z,1015.05
2018-09-09T08:28:31.273Z,1015.11
2018-09-09T08:29:31.293Z,1015.09
2018-09-09T08:30:31.317Z,1015.12
2018-09-09T08:31:31.351Z,1015.15
2018-09-09T08:32:31.364Z,1015.16
2018-09-09T08:33:31.415Z,1015.20
2018-09-09T08:34:31.411Z,1015.16
2018-09-09T08:35:31.433Z,1015.17
2018-09-09T08:36:31.459Z,1015.15
2018-09-09T08:37:31.483Z,1015.15
2018-09-09T08:38:31.504Z,1015.17
2018-09-09T08:39:31.526Z,1015.13
2018-09-09T08:40:31.550Z,1015.17
2018-09-09T08:41:31.573Z,1015.20
2018-09-09T08:42:31.601Z,1015.16
2018-09-09T08:43:31.628Z,1015.14
2018-09-09T08:44:31.646Z,1015.16
2018-09-09T08:45:31.728Z,1015.18
2018-09-09T08:46:31.694Z,1015.21
2018-09-09T08:47:31.718Z,1015.23
2018-09-09T08:48:31.740Z,1015.25
2018-09-09T08:49:31.765Z,1015.29
2018-09-09T08:50:31.786Z,1015.28
2018-09-09T08:51:31.812Z,1015.32
2018-09-09T08:52:31.837Z,1015.29
2018-09-09T08:53:31.859Z,1015.29
2018-09-09T08:54:31.881Z,1015.28
2018-09-09T08:55:31.909Z,1015.27
2018-09-09T08:56:31.930Z,1015.23
2018-09-09T08:57:31.963Z,1015.26
2018-09-09T08:58:31.976Z,1015.20
2018-09-09T08:59:32.000Z,1015.22
2018-09-09T09:00:32.029Z,1015.22
2018-09-09T09:01:32.050Z,1015.22
2018-09-09T09:02:32.081Z,1015.19
2018-09-09T09:03:32.096Z,1015.20
2018-09-09T09:04:32.120Z,1015.24
2018-09-09T09:05:32.145Z,1015.24
2018-09-09T09:06:32.169Z,1015.21
2018-09-09T09:07:32.244Z,1015.21
2018-09-09T09:08:32.218Z,1015.22
2018-09-09T09:09:32.243Z,1015.20
2018-09-09T09:10:32.263Z,1015.24
2018-09-09T09:11:32.289Z,1015.22
2018-09-09T09:12:32.315Z,1015.20
2018-09-09T09:13:32.337Z,1015.19
2018-09-09T09:14:32.368Z,1015.16
2018-09-09T09:15:32.383Z,1015.15
2018-09-09T09:16:32.407Z,1015.18
2018-09-09T09:17:32.433Z,1015.15
2018-09-09T09:18:32.513Z,1015.15
2018-09-09T09:19:32.483Z,1015.13
2018-09-09T09:20:32.539Z,1015.19
2018-09-09T09:21:32.533Z,1015.12
2018-09-09T09:22:32.554Z,1015.14
2018-09-09T09:23:32.641Z,1015.12
2018-09-09T09:24:32.600Z,1015.12
2018-09-09T09:25:32.626Z,1015.16
2018-09-09T09:26:32.650Z,1015.13
2018-09-09T09:27:32.672Z,1015.11
2018-09-09T09:28:32.697Z,1015.15
2018-09-09T09:29:32.721Z,1015.10
2018-09-09T09:30:32.784Z,1015.15
2018-09-09T09:31:32.774Z,1015.11
2018-09-09T09:32:32.793Z,1015.13
2018-09-09T09:33:32.819Z,1015.12
2018-09-09T09:34:32.841Z,1015.14
2018-09-09T09:35:32.866Z,1015.16
2018-09-09T09:36:32.893Z,1015.20
2018-09-09T09:37:32.917Z,1015.16
2018-09-09T09:38:32.940Z,1015.17
2018-09-09T09:39:32.992Z,1015.24
2018-09-09T09:40:32.987Z,1015.23
2018-09-09T09:41:33.010Z,1015.26
2018-09-09T09:42:33.038Z,1015.30
2018-09-09T09:43:33.059Z,1015.29
2018-09-09T09:44:33.087Z,1015.28
2018-09-09T09:45:33.109Z,1015.30
2018-09-09T09:46:33.135Z,1015.35
2018-09-09T09:47:33.159Z,1015.32
2018-09-09T09:48:33.181Z,1015.32
2018-09-09T09:49:33.208Z,1015.32
2018-09-09T09:50:33.233Z,1015.33
2018-09-09T09:51:33.254Z,1015.34
2018-09-09T09:52:33.278Z,1015.30
2018-09-09T09:53:33.365Z,1015.31
2018-09-09T09:54:33.328Z,1015.32
2018-09-09T09:55:33.384Z,1015.36
2018-09-09T09:56:33.376Z,1015.32
2018-09-09T09:57:33.399Z,1015.32
2018-09-09T09:58:33.423Z,1015.35
2018-09-09T09:59:33.449Z,1015.37
2018-09-09T10:00:33.475Z,1015.38
2018-09-09T10:01:33.497Z,1015.39
2018-09-09T10:02:33.525Z,1015.39
2018-09-09T10:03:33.626Z,1015.33
2018-09-09T10:04:33.576Z,1015.31
2018-09-09T10:05:33.597Z,1015.30
2018-09-09T10:06:33.622Z,1015.28
2018-09-09T10:07:33.644Z,1015.26
2018-09-09T10:08:33.669Z,1015.24
2018-09-09T10:09:33.694Z,1015.24
2018-09-09T10:10:33.718Z,1015.26
2018-09-09T10:11:33.743Z,1015.29
2018-09-09T10:12:33.767Z,1015.25
2018-09-09T10:13:33.798Z,1015.30
2018-09-09T10:14:33.816Z,1015.30
2018-09-09T10:15:33.838Z,1015.33
2018-09-09T10:16:33.866Z,1015.28
2018-09-09T10:17:33.887Z,1015.32
2018-09-09T10:18:33.913Z,1015.25
2018-09-09T10:19:33.937Z,1015.27
2018-09-09T10:20:33.988Z,1015.29
2018-09-09T10:21:33.988Z,1015.34
2018-09-09T10:22:34.013Z,1015.37
2018-09-09T10:23:34.037Z,1015.34
2018-09-09T10:24:34.067Z,1015.31
2018-09-09T10:25:34.083Z,1015.30
2018-09-09T10:26:34.110Z,1015.27
2018-09-09T10:27:34.140Z,1015.22
2018-09-09T10:28:34.158Z,1015.26
2018-09-09T10:29:34.184Z,1015.21
2018-09-09T10:30:34.209Z,1015.25
2018-09-09T10:31:34.234Z,1015.23
2018-09-09T10:32:34.259Z,1015.20
2018-09-09T10:33:34.280Z,1015.26
2018-09-09T10:34:34.308Z,1015.24
2018-09-09T10:35:34.331Z,1015.30
2018-09-09T10:36:34.358Z,1015.27
2018-09-09T10:37:34.384Z,1015.32
2018-09-09T10:38:34.410Z,1015.28
2018-09-09T10:39:34.431Z,1015.28
2018-09-09T10:40:34.455Z,1015.30
2018-09-09T10:41:34.481Z,1015.28
2018-09-09T10:42:34.506Z,1015.23
2018-09-09T10:43:34.530Z,1015.24
2018-09-09T10:44:34.556Z,1015.25
2018-09-09T10:45:34.581Z,1015.25
2018-09-09T10:46:34.634Z,1015.27
2018-09-09T10:47:34.634Z,1015.27
2018-09-09T10:48:34.658Z,1015.29
2018-09-09T10:49:34.688Z,1015.26
2018-09-09T10:50:34.704Z,1015.28
2018-09-09T10:51:34.729Z,1015.27
2018-09-09T10:52:34.761Z,1015.32
2018-09-09T10:53:34.782Z,1015.25
2018-09-09T10:54:34.837Z,1015.32
2018-09-09T10:55:34.831Z,1015.33
2018-09-09T10:56:34.858Z,1015.31
2018-09-09T10:57:34.881Z,1015.39
2018-09-09T10:58:34.906Z,1015.35
2018-09-09T10:59:34.932Z,1015.36
2018-09-09T11:00:34.960Z,1015.34
2018-09-09T11:01:34.979Z,1015.32
2018-09-09T11:02:35.005Z,1015.33
2018-09-09T11:03:35.057Z,1015.29
2018-09-09T11:04:35.056Z,1015.33
2018-09-09T11:05:35.081Z,1015.28
2018-09-09T11:06:35.104Z,1015.36
2018-09-09T11:07:35.131Z,1015.39
2018-09-09T11:08:35.157Z,1015.37
2018-09-09T11:09:35.184Z,1015.38
2018-09-09T11:10:35.204Z,1015.50
2018-09-09T11:11:35.233Z,1015.47
2018-09-09T11:12:35.350Z,1015.47
2018-09-09T11:13:35.280Z,1015.45
2018-09-09T11:14:35.306Z,1015.45
2018-09-09T11:15:35.332Z,1015.46
2018-09-09T11:16:35.358Z,1015.51
2018-09-09T11:17:35.382Z,1015.52
2018-09-09T11:18:35.405Z,1015.48
2018-09-09T11:19:35.436Z,1015.49
2018-09-09T11:20:35.461Z,1015.50
2018-09-09T11:21:35.484Z,1015.52
2018-09-09T11:22:35.506Z,1015.51
2018-09-09T11:23:35.534Z,1015.49
2018-09-09T11:24:35.615Z,1015.49
2018-09-09T11:25:35.587Z,1015.48
2018-09-09T11:26:35.612Z,1015.46
2018-09-09T11:27:35.635Z,1015.46
2018-09-09T11:28:35.663Z,1015.48
2018-09-09T11:29:35.684Z,1015.48
2018-09-09T11:30:35.713Z,1015.46
2018-09-09T11:31:35.738Z,1015.44
2018-09-09T11:32:35.763Z,1015.44
2018-09-09T11:33:35.786Z,1015.46
2018-09-09T11:34:35.816Z,1015.41
2018-09-09T11:35:35.838Z,1015.50
2018-09-09T11:36:35.865Z,1015.44
2018-09-09T11:37:35.889Z,1015.46
2018-09-09T11:38:35.917Z,1015.43
2018-09-09T11:39:35.943Z,1015.43
2018-09-09T11:40:36.072Z,1015.40
2018-09-09T11:41:35.992Z,1015.48
2018-09-09T11:42:36.021Z,1015.42
2018-09-09T11:43:36.046Z,1015.40
2018-09-09T11:44:36.071Z,1015.39
2018-09-09T11:45:36.100Z,1015.40
2018-09-09T11:46:36.122Z,1015.40
2018-09-09T11:47:36.149Z,1015.37
2018-09-09T11:48:36.174Z,1015.35
2018-09-09T11:49:36.201Z,1015.35
2018-09-09T11:50:36.228Z,1015.35
2018-09-09T11:51:36.254Z,1015.29
2018-09-09T11:52:36.280Z,1015.28
2018-09-09T11:53:36.306Z,1015.30
2018-09-09T11:54:36.330Z,1015.34
2018-09-09T11:55:36.359Z,1015.35
2018-09-09T11:56:36.384Z,1015.34
2018-09-09T11:57:36.409Z,1015.31
2018-09-09T11:58:36.433Z,1015.29
2018-09-09T11:59:36.458Z,1015.30
2018-09-09T12:00:36.487Z,1015.24
2018-09-09T12:01:36.513Z,1015.23
2018-09-09T12:02:36.537Z,1015.21
2018-09-09T12:03:36.561Z,1015.16
2018-09-09T12:04:36.590Z,1015.11
2018-09-09T12:05:36.612Z,1015.13